sensor_id;sensor_type;location;lat;lon;timestamp;pressure;altitude;pressure_sealevel;temperature;humidity
77161;BME280;66135;0.000;0.000;2023-07-31T00:01:10;100975.28;;;22.31;66.55
77161;BME280;66135;0.000;0.000;2023-07-31T00:03:35;100981.94;;;22.28;66.65
77161;BME280;66135;0.000;0.000;2023-07-31T00:06:00;100975.69;;;22.28;66.41
77161;BME280;66135;0.000;0.000;2023-07-31T00:08:26;100972.94;;;22.28;66.73
77161;BME280;66135;0.000;0.000;2023-07-31T00:10:52;100967.66;;;22.26;66.64
77161;BME280;66135;0.000;0.000;2023-07-31T00:13:18;100963.91;;;22.27;66.75
77161;BME280;66135;0.000;0.000;2023-07-31T00:15:43;100971.25;;;22.27;66.47
77161;BME280;66135;0.000;0.000;2023-07-31T00:18:08;100976.69;;;22.27;66.38
77161;BME280;66135;0.000;0.000;2023-07-31T00:20:34;100974.16;;;22.25;66.42
77161;BME280;66135;0.000;0.000;2023-07-31T00:22:59;100975.03;;;22.26;66.29
77161;BME280;66135;0.000;0.000;2023-07-31T00:25:24;100968.50;;;22.27;66.60
77161;BME280;66135;0.000;0.000;2023-07-31T00:27:50;100963.25;;;22.25;66.38
77161;BME280;66135;0.000;0.000;2023-07-31T00:30:15;100965.78;;;22.27;66.24
77161;BME280;66135;0.000;0.000;2023-07-31T00:32:41;100961.38;;;22.26;66.47
77161;BME280;66135;0.000;0.000;2023-07-31T00:35:07;100962.41;;;22.25;66.63
77161;BME280;66135;0.000;0.000;2023-07-31T00:37:32;100970.59;;;22.25;66.54
77161;BME280;66135;0.000;0.000;2023-07-31T00:39:57;100959.69;;;22.25;66.34
77161;BME280;66135;0.000;0.000;2023-07-31T00:42:24;100962.41;;;22.25;66.54
77161;BME280;66135;0.000;0.000;2023-07-31T00:44:49;100955.28;;;22.24;66.13
77161;BME280;66135;0.000;0.000;2023-07-31T00:47:15;100960.53;;;22.25;66.59
77161;BME280;66135;0.000;0.000;2023-07-31T00:49:40;100962.41;;;22.25;66.54
77161;BME280;66135;0.000;0.000;2023-07-31T00:52:06;100963.66;;;22.22;66.26
77161;BME280;66135;0.000;0.000;2023-07-31T00:54:32;100950.66;;;22.24;66.40
77161;BME280;66135;0.000;0.000;2023-07-31T00:56:57;100952.53;;;22.24;66.32
77161;BME280;66135;0.000;0.000;2023-07-31T00:59:23;100947.09;;;22.24;66.39
77161;BME280;66135;0.000;0.000;2023-07-31T01:01:49;100955.28;;;22.24;66.49
77161;BME280;66135;0.000;0.000;2023-07-31T01:04:14;100951.91;;;22.22;66.24
77161;BME280;66135;0.000;0.000;2023-07-31T01:07:02;100951.03;;;22.21;66.60
77161;BME280;66135;0.000;0.000;2023-07-31T01:09:42;100954.63;;;22.22;66.53
77161;BME280;66135;0.000;0.000;2023-07-31T01:12:14;100950.84;;;22.23;66.43
77161;BME280;66135;0.000;0.000;2023-07-31T01:14:39;100941.84;;;22.22;66.30
77161;BME280;66135;0.000;0.000;2023-07-31T01:17:05;100943.72;;;22.22;66.50
77161;BME280;66135;0.000;0.000;2023-07-31T01:19:30;100938.25;;;22.22;66.33
77161;BME280;66135;0.000;0.000;2023-07-31T01:25:21;100944.34;;;22.24;66.04
77161;BME280;66135;0.000;0.000;2023-07-31T01:27:59;100951.03;;;22.21;66.43
77161;BME280;66135;0.000;0.000;2023-07-31T01:30:31;100942.03;;;22.21;66.42
77161;BME280;66135;0.000;0.000;2023-07-31T01:32:59;100940.97;;;22.22;66.62
77161;BME280;66135;0.000;0.000;2023-07-31T01:35:24;100941.63;;;22.24;66.46
77161;BME280;66135;0.000;0.000;2023-07-31T01:37:52;100948.50;;;22.20;66.35
77161;BME280;66135;0.000;0.000;2023-07-31T01:40:19;100949.38;;;22.20;66.56
77161;BME280;66135;0.000;0.000;2023-07-31T01:42:44;100942.84;;;22.21;66.54
77161;BME280;66135;0.000;0.000;2023-07-31T01:45:10;100941.19;;;22.20;66.24
77161;BME280;66135;0.000;0.000;2023-07-31T01:47:35;100936.75;;;22.19;66.29
77161;BME280;66135;0.000;0.000;2023-07-31T01:50:01;100939.31;;;22.21;66.13
77161;BME280;66135;0.000;0.000;2023-07-31T01:52:26;100931.50;;;22.18;66.37
77161;BME280;66135;0.000;0.000;2023-07-31T01:54:51;100935.28;;;22.17;66.56
77161;BME280;66135;0.000;0.000;2023-07-31T01:57:17;100923.50;;;22.16;66.10
77161;BME280;66135;0.000;0.000;2023-07-31T01:59:42;100930.66;;;22.17;66.67
77161;BME280;66135;0.000;0.000;2023-07-31T02:02:08;100928.75;;;22.18;66.48
77161;BME280;66135;0.000;0.000;2023-07-31T02:04:33;100913.44;;;22.17;66.18
77161;BME280;66135;0.000;0.000;2023-07-31T02:06:59;100918.50;;;22.20;66.27
77161;BME280;66135;0.000;0.000;2023-07-31T02:09:24;100915.75;;;22.20;66.51
77161;BME280;66135;0.000;0.000;2023-07-31T02:11:50;100909.66;;;22.18;66.43
77161;BME280;66135;0.000;0.000;2023-07-31T02:14:15;100902.75;;;22.15;66.23
77161;BME280;66135;0.000;0.000;2023-07-31T02:16:41;100896.88;;;22.18;65.94
77161;BME280;66135;0.000;0.000;2023-07-31T02:19:07;100897.72;;;22.19;66.37
77161;BME280;66135;0.000;0.000;2023-07-31T02:21:33;100890.75;;;22.16;66.16
77161;BME280;66135;0.000;0.000;2023-07-31T02:23:58;100892.66;;;22.16;66.53
77161;BME280;66135;0.000;0.000;2023-07-31T02:26:24;100889.91;;;22.16;66.12
77161;BME280;66135;0.000;0.000;2023-07-31T02:28:49;100886.16;;;22.17;66.27
77161;BME280;66135;0.000;0.000;2023-07-31T02:31:15;100887.00;;;22.17;66.26
77161;BME280;66135;0.000;0.000;2023-07-31T02:33:40;100883.44;;;22.17;66.28
77161;BME280;66135;0.000;0.000;2023-07-31T02:36:05;100883.44;;;22.17;66.39
77161;BME280;66135;0.000;0.000;2023-07-31T02:38:31;100872.09;;;22.20;66.07
77161;BME280;66135;0.000;0.000;2023-07-31T02:40:56;100878.81;;;22.17;66.08
77161;BME280;66135;0.000;0.000;2023-07-31T02:43:21;100867.47;;;22.14;66.37
77161;BME280;66135;0.000;0.000;2023-07-31T02:45:51;100871.88;;;22.15;66.38
77161;BME280;66135;0.000;0.000;2023-07-31T02:48:17;100874.59;;;22.15;66.19
77161;BME280;66135;0.000;0.000;2023-07-31T02:50:42;100876.47;;;22.14;66.42
77161;BME280;66135;0.000;0.000;2023-07-31T02:53:08;100869.34;;;22.13;66.04
77161;BME280;66135;0.000;0.000;2023-07-31T02:55:33;100874.59;;;22.15;66.42
77161;BME280;66135;0.000;0.000;2023-07-31T02:57:58;100869.34;;;22.13;66.00
77161;BME280;66135;0.000;0.000;2023-07-31T03:00:24;100868.50;;;22.13;66.23
77161;BME280;66135;0.000;0.000;2023-07-31T03:02:49;100868.69;;;22.11;66.43
77161;BME280;66135;0.000;0.000;2023-07-31T03:05:15;100860.31;;;22.13;66.13
77161;BME280;66135;0.000;0.000;2023-07-31T03:07:40;100858.63;;;22.12;66.47
77161;BME280;66135;0.000;0.000;2023-07-31T03:10:06;100854.22;;;22.11;66.17
77161;BME280;66135;0.000;0.000;2023-07-31T03:12:31;100858.00;;;22.10;66.34
77161;BME280;66135;0.000;0.000;2023-07-31T03:14:57;100856.94;;;22.11;66.13
77161;BME280;66135;0.000;0.000;2023-07-31T11:55:41;100574.03;;;21.98;69.21
77161;BME280;66135;0.000;0.000;2023-07-31T11:58:08;100583.25;;;21.97;69.18
77161;BME280;66135;0.000;0.000;2023-07-31T12:00:33;100579.66;;;21.97;69.24
77161;BME280;66135;0.000;0.000;2023-07-31T12:02:59;100574.22;;;21.97;69.18
77161;BME280;66135;0.000;0.000;2023-07-31T12:05:24;100576.13;;;21.96;68.98
77161;BME280;66135;0.000;0.000;2023-07-31T12:07:52;100570.66;;;21.96;69.11
77161;BME280;66135;0.000;0.000;2023-07-31T12:10:31;100571.47;;;21.97;69.66
77161;BME280;66135;0.000;0.000;2023-07-31T12:13:02;100569.59;;;21.97;69.04
77161;BME280;66135;0.000;0.000;2023-07-31T12:15:39;100566.88;;;21.97;69.24
77161;BME280;66135;0.000;0.000;2023-07-31T12:18:25;100565.00;;;21.98;68.99
77161;BME280;66135;0.000;0.000;2023-07-31T12:20:57;100573.19;;;21.98;69.29
77161;BME280;66135;0.000;0.000;2023-07-31T12:23:31;100572.13;;;21.99;69.62
77161;BME280;66135;0.000;0.000;2023-07-31T12:26:16;100559.34;;;21.99;69.23
77161;BME280;66135;0.000;0.000;2023-07-31T12:28:49;100547.56;;;21.99;69.71
77161;BME280;66135;0.000;0.000;2023-07-31T12:31:20;100539.38;;;21.99;69.31
77161;BME280;66135;0.000;0.000;2023-07-31T12:33:47;100534.78;;;21.99;69.40
77161;BME280;66135;0.000;0.000;2023-07-31T12:36:17;100539.38;;;21.99;69.36
77161;BME280;66135;0.000;0.000;2023-07-31T12:38:43;100535.00;;;21.98;69.36
77161;BME280;66135;0.000;0.000;2023-07-31T12:41:09;100532.06;;;21.99;69.64
77161;BME280;66135;0.000;0.000;2023-07-31T12:43:37;100533.94;;;21.99;69.34
77161;BME280;66135;0.000;0.000;2023-07-31T12:46:03;100533.13;;;21.98;69.55
77161;BME280;66135;0.000;0.000;2023-07-31T12:48:29;100532.06;;;21.99;69.43
77161;BME280;66135;0.000;0.000;2023-07-31T12:50:54;100514.03;;;21.98;69.66
77161;BME280;66135;0.000;0.000;2023-07-31T12:53:20;100521.16;;;21.99;69.07
77161;BME280;66135;0.000;0.000;2023-07-31T12:55:46;100503.94;;;21.99;69.11
77161;BME280;66135;0.000;0.000;2023-07-31T12:58:11;100504.78;;;21.99;69.41
77161;BME280;66135;0.000;0.000;2023-07-31T13:00:37;100507.50;;;21.99;69.31
77161;BME280;66135;0.000;0.000;2023-07-31T13:03:03;100516.53;;;22.00;69.18
77161;BME280;66135;0.000;0.000;2023-07-31T13:05:28;100504.78;;;21.99;69.05
77161;BME280;66135;0.000;0.000;2023-07-31T13:07:54;100505.63;;;22.00;68.95
77161;BME280;66135;0.000;0.000;2023-07-31T13:10:20;100497.44;;;22.00;69.10
77161;BME280;66135;0.000;0.000;2023-07-31T13:12:45;100503.13;;;21.98;69.42
77161;BME280;66135;0.000;0.000;2023-07-31T13:15:12;100507.50;;;21.99;69.12
77161;BME280;66135;0.000;0.000;2023-07-31T13:17:37;100516.53;;;22.00;69.07
77161;BME280;66135;0.000;0.000;2023-07-31T13:20:03;100506.44;;;22.00;68.90
77161;BME280;66135;0.000;0.000;2023-07-31T13:22:29;100512.75;;;22.01;69.18
77161;BME280;66135;0.000;0.000;2023-07-31T13:24:54;100514.63;;;22.00;69.40
77161;BME280;66135;0.000;0.000;2023-07-31T13:27:20;100511.09;;;22.00;68.85
77161;BME280;66135;0.000;0.000;2023-07-31T13:29:47;100498.25;;;22.00;69.02
77161;BME280;66135;0.000;0.000;2023-07-31T13:32:14;100501.00;;;22.00;69.32
77161;BME280;66135;0.000;0.000;2023-07-31T13:34:39;100505.63;;;22.00;68.77
77161;BME280;66135;0.000;0.000;2023-07-31T13:37:05;100492.00;;;22.00;69.26
77161;BME280;66135;0.000;0.000;2023-07-31T13:39:31;100482.97;;;21.99;69.35
77161;BME280;66135;0.000;0.000;2023-07-31T13:41:57;100476.66;;;21.99;69.46
77161;BME280;66135;0.000;0.000;2023-07-31T13:44:23;100479.59;;;21.97;69.22
77161;BME280;66135;0.000;0.000;2023-07-31T13:46:48;100485.06;;;21.97;69.18
77161;BME280;66135;0.000;0.000;2023-07-31T13:49:14;100486.75;;;21.98;69.60
77161;BME280;66135;0.000;0.000;2023-07-31T13:51:39;100486.53;;;22.00;69.56
77161;BME280;66135;0.000;0.000;2023-07-31T13:54:05;100484.63;;;22.00;69.47
77161;BME280;66135;0.000;0.000;2023-07-31T13:56:31;100487.16;;;22.02;69.32
77161;BME280;66135;0.000;0.000;2023-07-31T13:58:57;100486.31;;;22.01;69.35
77161;BME280;66135;0.000;0.000;2023-07-31T14:01:22;100476.03;;;22.03;69.38
77161;BME280;66135;0.000;0.000;2023-07-31T14:03:48;100484.22;;;22.03;69.27
77161;BME280;66135;0.000;0.000;2023-07-31T14:06:13;100480.44;;;22.04;69.33
77161;BME280;66135;0.000;0.000;2023-07-31T14:08:39;100479.59;;;22.04;69.25
77161;BME280;66135;0.000;0.000;2023-07-31T14:11:04;100472.25;;;22.04;69.59
77161;BME280;66135;0.000;0.000;2023-07-31T14:13:29;100471.63;;;22.02;69.79
77161;BME280;66135;0.000;0.000;2023-07-31T14:15:55;100474.13;;;22.04;69.45
77161;BME280;66135;0.000;0.000;2023-07-31T14:18:20;100476.69;;;22.05;69.16
77161;BME280;66135;0.000;0.000;2023-07-31T14:20:46;100462.41;;;22.03;69.08
77161;BME280;66135;0.000;0.000;2023-07-31T14:23:11;100465.78;;;22.05;69.48
77161;BME280;66135;0.000;0.000;2023-07-31T14:25:37;100466.59;;;22.06;69.36
77161;BME280;66135;0.000;0.000;2023-07-31T14:28:02;100467.44;;;22.06;69.62
77161;BME280;66135;0.000;0.000;2023-07-31T14:30:28;100453.78;;;22.06;69.28
77161;BME280;66135;0.000;0.000;2023-07-31T14:32:53;100447.50;;;22.06;69.54
77161;BME280;66135;0.000;0.000;2023-07-31T14:35:18;100461.13;;;22.06;69.17
77161;BME280;66135;0.000;0.000;2023-07-31T14:37:44;100467.44;;;22.06;69.43
77161;BME280;66135;0.000;0.000;2023-07-31T14:40:11;100466.16;;;22.02;69.08
77161;BME280;66135;0.000;0.000;2023-07-31T14:42:38;100465.94;;;22.04;69.31
77161;BME280;66135;0.000;0.000;2023-07-31T14:45:04;100461.34;;;22.04;69.21
77161;BME280;66135;0.000;0.000;2023-07-31T14:47:30;100449.81;;;22.02;69.58
77161;BME280;66135;0.000;0.000;2023-07-31T14:49:59;100452.53;;;22.02;69.06
77161;BME280;66135;0.000;0.000;2023-07-31T14:52:25;100450.84;;;22.01;69.39
77161;BME280;66135;0.000;0.000;2023-07-31T14:54:51;100439.09;;;22.01;69.04
77161;BME280;66135;0.000;0.000;2023-07-31T14:57:16;100439.09;;;22.01;69.39
77161;BME280;66135;0.000;0.000;2023-07-31T14:59:42;100430.06;;;22.00;69.43
77161;BME280;66135;0.000;0.000;2023-07-31T15:02:08;100433.00;;;21.99;69.38
77161;BME280;66135;0.000;0.000;2023-07-31T15:04:35;100434.06;;;21.98;69.45
77161;BME280;66135;0.000;0.000;2023-07-31T15:07:00;100432.38;;;21.97;69.41
77161;BME280;66135;0.000;0.000;2023-07-31T15:09:26;100429.66;;;21.97;69.80
77161;BME280;66135;0.000;0.000;2023-07-31T15:11:51;100418.75;;;21.97;69.21
77161;BME280;66135;0.000;0.000;2023-07-31T15:14:16;100414.13;;;21.97;69.38
77161;BME280;66135;0.000;0.000;2023-07-31T15:16:42;100414.13;;;21.97;69.25
77161;BME280;66135;0.000;0.000;2023-07-31T15:19:07;100403.22;;;21.97;69.42
77161;BME280;66135;0.000;0.000;2023-07-31T15:21:33;100410.78;;;21.95;69.04
77161;BME280;66135;0.000;0.000;2023-07-31T15:23:58;100414.34;;;21.96;69.00
77161;BME280;66135;0.000;0.000;2023-07-31T15:26:23;100408.03;;;21.95;69.10
77161;BME280;66135;0.000;0.000;2023-07-31T15:28:53;100399.03;;;21.95;69.20
77161;BME280;66135;0.000;0.000;2023-07-31T15:31:20;100394.63;;;21.94;69.26
77161;BME280;66135;0.000;0.000;2023-07-31T15:33:47;100395.25;;;21.96;69.15
77161;BME280;66135;0.000;0.000;2023-07-31T15:36:13;100387.28;;;21.94;69.33
77161;BME280;66135;0.000;0.000;2023-07-31T15:38:38;100373.66;;;21.94;69.09
77161;BME280;66135;0.000;0.000;2023-07-31T15:41:04;100372.59;;;21.95;69.50
77161;BME280;66135;0.000;0.000;2023-07-31T15:43:29;100364.63;;;21.94;69.11
77161;BME280;66135;0.000;0.000;2023-07-31T15:45:55;100364.63;;;21.94;69.31
77161;BME280;66135;0.000;0.000;2023-07-31T15:48:20;100358.13;;;21.95;69.13
77161;BME280;66135;0.000;0.000;2023-07-31T15:50:46;100362.75;;;21.94;69.02
77161;BME280;66135;0.000;0.000;2023-07-31T15:53:11;100352.69;;;21.95;69.16
77161;BME280;66135;0.000;0.000;2023-07-31T15:55:37;100363.78;;;21.93;69.24
77161;BME280;66135;0.000;0.000;2023-07-31T15:58:02;100348.47;;;21.92;69.25
77161;BME280;66135;0.000;0.000;2023-07-31T16:00:27;100346.59;;;21.93;68.89
77161;BME280;66135;0.000;0.000;2023-07-31T16:02:53;100343.66;;;21.94;69.22
77161;BME280;66135;0.000;0.000;2023-07-31T16:05:18;100344.69;;;21.93;69.34
77161;BME280;66135;0.000;0.000;2023-07-31T16:07:44;100340.28;;;21.99;69.08
77161;BME280;66135;0.000;0.000;2023-07-31T16:10:09;100337.34;;;22.00;69.29
77161;BME280;66135;0.000;0.000;2023-07-31T16:12:34;100319.09;;;22.01;69.66
77161;BME280;66135;0.000;0.000;2023-07-31T16:15:00;100320.78;;;22.02;69.57
77161;BME280;66135;0.000;0.000;2023-07-31T16:17:25;100317.00;;;22.03;69.53
77161;BME280;66135;0.000;0.000;2023-07-31T16:19:51;100303.34;;;22.03;69.61
77161;BME280;66135;0.000;0.000;2023-07-31T16:22:16;100306.94;;;22.03;70.02
77161;BME280;66135;0.000;0.000;2023-07-31T16:24:42;100301.47;;;22.03;70.02
77161;BME280;66135;0.000;0.000;2023-07-31T16:27:07;100294.31;;;22.02;69.63
77161;BME280;66135;0.000;0.000;2023-07-31T16:29:32;100302.28;;;22.04;70.38
77161;BME280;66135;0.000;0.000;2023-07-31T16:31:58;100298.75;;;22.03;70.29
77161;BME280;66135;0.000;0.000;2023-07-31T16:34:23;100294.94;;;22.04;71.03
77161;BME280;66135;0.000;0.000;2023-07-31T16:36:50;100292.44;;;22.03;71.02
77161;BME280;66135;0.000;0.000;2023-07-31T16:39:15;100277.13;;;22.02;71.13
77161;BME280;66135;0.000;0.000;2023-07-31T16:41:40;100277.13;;;22.02;70.61
77161;BME280;66135;0.000;0.000;2023-07-31T16:44:06;100273.56;;;22.01;70.39
77161;BME280;66135;0.000;0.000;2023-07-31T16:46:32;100265.59;;;22.00;70.45
77161;BME280;66135;0.000;0.000;2023-07-31T16:48:57;100268.31;;;22.00;70.75
77161;BME280;66135;0.000;0.000;2023-07-31T16:51:23;100264.53;;;22.01;70.57
77161;BME280;66135;0.000;0.000;2023-07-31T16:53:48;100249.22;;;22.00;70.48
77161;BME280;66135;0.000;0.000;2023-07-31T16:56:14;100250.25;;;21.99;70.65
77161;BME280;66135;0.000;0.000;2023-07-31T16:58:40;100253.00;;;21.99;70.76
77161;BME280;66135;0.000;0.000;2023-07-31T17:01:06;100237.69;;;21.98;70.77
77161;BME280;66135;0.000;0.000;2023-07-31T17:03:32;100238.53;;;21.98;70.90
77161;BME280;66135;0.000;0.000;2023-07-31T17:05:58;100243.38;;;21.96;70.72
77161;BME280;66135;0.000;0.000;2023-07-31T17:08:23;100234.34;;;21.96;70.85
77161;BME280;66135;0.000;0.000;2023-07-31T17:10:48;100228.88;;;21.96;71.25
77161;BME280;66135;0.000;0.000;2023-07-31T17:13:14;100238.94;;;21.95;71.20
77161;BME280;66135;0.000;0.000;2023-07-31T17:15:39;100236.22;;;21.95;70.92
77161;BME280;66135;0.000;0.000;2023-07-31T17:18:04;100225.09;;;21.97;71.09
77161;BME280;66135;0.000;0.000;2023-07-31T17:20:30;100216.31;;;21.95;70.92
77161;BME280;66135;0.000;0.000;2023-07-31T17:22:57;100220.69;;;21.96;71.13
77161;BME280;66135;0.000;0.000;2023-07-31T17:25:22;100211.69;;;21.95;70.90
77161;BME280;66135;0.000;0.000;2023-07-31T17:27:48;100222.19;;;21.98;71.21
77161;BME280;66135;0.000;0.000;2023-07-31T17:30:13;100229.28;;;21.99;71.34
77161;BME280;66135;0.000;0.000;2023-07-31T17:32:39;100203.91;;;21.99;70.87
77161;BME280;66135;0.000;0.000;2023-07-31T17:35:04;100196.34;;;22.01;70.84
77161;BME280;66135;0.000;0.000;2023-07-31T17:37:30;100206.22;;;22.02;71.07
77161;BME280;66135;0.000;0.000;2023-07-31T17:39:56;100195.31;;;22.02;71.17
77161;BME280;66135;0.000;0.000;2023-07-31T17:42:21;100202.66;;;22.01;71.86
77161;BME280;66135;0.000;0.000;2023-07-31T17:44:46;100194.69;;;22.00;71.92
77161;BME280;66135;0.000;0.000;2023-07-31T17:47:13;100192.78;;;22.00;71.84
77161;BME280;66135;0.000;0.000;2023-07-31T17:49:38;100185.44;;;22.01;71.32
77161;BME280;66135;0.000;0.000;2023-07-31T17:52:04;100180.81;;;22.01;71.39
77161;BME280;66135;0.000;0.000;2023-07-31T17:54:29;100186.28;;;22.01;71.50
77161;BME280;66135;0.000;0.000;2023-07-31T17:56:55;100185.44;;;22.01;71.60
77161;BME280;66135;0.000;0.000;2023-07-31T17:59:20;100174.31;;;22.02;71.56
77161;BME280;66135;0.000;0.000;2023-07-31T18:01:45;100178.72;;;22.03;71.59
77161;BME280;66135;0.000;0.000;2023-07-31T18:04:13;100185.44;;;22.01;72.38
77161;BME280;66135;0.000;0.000;2023-07-31T18:06:38;100176.41;;;22.00;71.51
77161;BME280;66135;0.000;0.000;2023-07-31T18:09:04;100180.81;;;22.01;71.58
77161;BME280;66135;0.000;0.000;2023-07-31T18:11:31;100170.13;;;22.00;71.60
77161;BME280;66135;0.000;0.000;2023-07-31T18:13:56;100173.50;;;22.02;72.00
77161;BME280;66135;0.000;0.000;2023-07-31T18:16:22;100166.97;;;22.03;72.28
77161;BME280;66135;0.000;0.000;2023-07-31T18:18:47;100148.94;;;22.02;72.27
77161;BME280;66135;0.000;0.000;2023-07-31T18:21:13;100139.69;;;22.03;71.89
77161;BME280;66135;0.000;0.000;2023-07-31T18:23:38;100113.47;;;22.02;71.64
77161;BME280;66135;0.000;0.000;2023-07-31T18:26:03;100104.22;;;22.03;71.40
77161;BME280;66135;0.000;0.000;2023-07-31T18:28:29;100090.59;;;22.03;71.66
77161;BME280;66135;0.000;0.000;2023-07-31T18:31:01;100098.78;;;22.03;71.88
77161;BME280;66135;0.000;0.000;2023-07-31T18:33:27;100086.00;;;22.03;71.81
77161;BME280;66135;0.000;0.000;2023-07-31T18:35:53;100085.75;;;22.05;71.64
77161;BME280;66135;0.000;0.000;2023-07-31T18:38:18;100075.88;;;22.04;71.71
77161;BME280;66135;0.000;0.000;2023-07-31T18:40:44;100096.06;;;22.03;71.62
77161;BME280;66135;0.000;0.000;2023-07-31T18:43:09;100102.34;;;22.03;71.57
77161;BME280;66135;0.000;0.000;2023-07-31T18:45:35;100091.44;;;22.03;71.31
77161;BME280;66135;0.000;0.000;2023-07-31T18:48:00;100084.06;;;22.04;71.44
77161;BME280;66135;0.000;0.000;2023-07-31T18:50:26;100081.34;;;22.04;71.17
77161;BME280;66135;0.000;0.000;2023-07-31T18:52:51;100091.44;;;22.03;71.49
77161;BME280;66135;0.000;0.000;2023-07-31T18:55:17;100096.91;;;22.03;71.59
77161;BME280;66135;0.000;0.000;2023-07-31T18:57:43;100085.13;;;22.03;71.48
77161;BME280;66135;0.000;0.000;2023-07-31T19:00:09;100096.06;;;22.03;71.33
77161;BME280;66135;0.000;0.000;2023-07-31T19:02:35;100102.34;;;22.03;71.57
77161;BME280;66135;0.000;0.000;2023-07-31T19:05:01;100100.44;;;22.04;71.67
77161;BME280;66135;0.000;0.000;2023-07-31T19:07:26;100111.34;;;22.04;71.54
77161;BME280;66135;0.000;0.000;2023-07-31T19:09:52;100103.16;;;22.04;71.24
77161;BME280;66135;0.000;0.000;2023-07-31T19:12:17;100096.69;;;22.05;71.59
77161;BME280;66135;0.000;0.000;2023-07-31T19:14:43;100104.00;;;22.04;71.53
77161;BME280;66135;0.000;0.000;2023-07-31T19:17:08;100103.16;;;22.04;71.15
77161;BME280;66135;0.000;0.000;2023-07-31T19:19:33;100121.00;;;22.06;71.33
77161;BME280;66135;0.000;0.000;2023-07-31T19:21:59;100105.69;;;22.05;71.10
77161;BME280;66135;0.000;0.000;2023-07-31T19:24:24;100110.31;;;22.05;71.37
77161;BME280;66135;0.000;0.000;2023-07-31T19:26:50;100104.00;;;22.04;71.04
77161;BME280;66135;0.000;0.000;2023-07-31T19:29:16;100113.25;;;22.03;71.28
77161;BME280;66135;0.000;0.000;2023-07-31T19:31:41;100106.75;;;22.04;71.25
77161;BME280;66135;0.000;0.000;2023-07-31T19:34:09;100105.69;;;22.05;71.60
77161;BME280;66135;0.000;0.000;2023-07-31T19:36:35;100103.16;;;22.04;71.32
77161;BME280;66135;0.000;0.000;2023-07-31T19:39:00;100096.91;;;22.03;71.46
77161;BME280;66135;0.000;0.000;2023-07-31T19:41:26;100093.09;;;22.04;71.34
77161;BME280;66135;0.000;0.000;2023-07-31T19:43:52;100093.09;;;22.04;71.64
77161;BME280;66135;0.000;0.000;2023-07-31T19:46:17;100087.66;;;22.04;71.04
77161;BME280;66135;0.000;0.000;2023-07-31T19:48:43;100080.53;;;22.03;71.65
77161;BME280;66135;0.000;0.000;2023-07-31T19:51:08;100078.63;;;22.04;71.66
77161;BME280;66135;0.000;0.000;2023-07-31T19:53:33;100067.72;;;22.04;71.52
77161;BME280;66135;0.000;0.000;2023-07-31T19:55:59;100090.81;;;22.01;71.37
77161;BME280;66135;0.000;0.000;2023-07-31T19:58:26;100106.13;;;22.02;71.23
77161;BME280;66135;0.000;0.000;2023-07-31T20:00:55;100101.50;;;22.03;71.52
77161;BME280;66135;0.000;0.000;2023-07-31T20:03:20;100105.09;;;22.03;71.24
77161;BME280;66135;0.000;0.000;2023-07-31T20:05:46;100104.00;;;22.04;71.33
77161;BME280;66135;0.000;0.000;2023-07-31T20:08:14;100098.78;;;22.03;71.43
77161;BME280;66135;0.000;0.000;2023-07-31T20:10:39;100084.28;;;22.02;70.95
77161;BME280;66135;0.000;0.000;2023-07-31T20:13:05;100086.00;;;22.03;71.61
77161;BME280;66135;0.000;0.000;2023-07-31T20:15:30;100088.09;;;22.01;71.31
77161;BME280;66135;0.000;0.000;2023-07-31T20:17:56;100081.78;;;22.01;71.46
77161;BME280;66135;0.000;0.000;2023-07-31T20:20:23;100097.13;;;22.02;71.20
77161;BME280;66135;0.000;0.000;2023-07-31T20:22:49;100097.13;;;22.02;71.43
77161;BME280;66135;0.000;0.000;2023-07-31T20:25:15;100079.69;;;22.03;71.11
77161;BME280;66135;0.000;0.000;2023-07-31T20:27:40;100086.00;;;22.03;71.01
77161;BME280;66135;0.000;0.000;2023-07-31T20:30:06;100076.97;;;22.03;71.40
77161;BME280;66135;0.000;0.000;2023-07-31T20:32:32;100079.69;;;22.03;71.09
77161;BME280;66135;0.000;0.000;2023-07-31T20:34:57;100063.31;;;22.03;70.85
77161;BME280;66135;0.000;0.000;2023-07-31T20:37:22;100057.88;;;22.03;71.26
77161;BME280;66135;0.000;0.000;2023-07-31T20:39:48;100056.78;;;22.04;71.22
77161;BME280;66135;0.000;0.000;2023-07-31T20:42:13;100053.25;;;22.03;71.19
77161;BME280;66135;0.000;0.000;2023-07-31T20:44:41;100045.28;;;22.02;71.02
77161;BME280;66135;0.000;0.000;2023-07-31T20:47:06;100042.97;;;21.99;71.40
77161;BME280;66135;0.000;0.000;2023-07-31T20:49:31;100034.19;;;21.97;71.13
77161;BME280;66135;0.000;0.000;2023-07-31T20:51:57;100034.19;;;21.97;71.13
77161;BME280;66135;0.000;0.000;2023-07-31T20:54:22;100031.69;;;21.95;71.22
77161;BME280;66135;0.000;0.000;2023-07-31T20:56:48;100030.88;;;21.95;71.20
77161;BME280;66135;0.000;0.000;2023-07-31T20:59:14;100021.00;;;21.94;70.92
77161;BME280;66135;0.000;0.000;2023-07-31T21:01:40;100019.34;;;21.93;70.90
77161;BME280;66135;0.000;0.000;2023-07-31T21:04:07;100010.53;;;21.91;71.00
77161;BME280;66135;0.000;0.000;2023-07-31T21:06:32;100010.53;;;21.91;71.17
77161;BME280;66135;0.000;0.000;2023-07-31T21:08:58;100000.66;;;21.90;70.96
77161;BME280;66135;0.000;0.000;2023-07-31T21:11:23;99995.22;;;21.90;70.54
77161;BME280;66135;0.000;0.000;2023-07-31T21:13:49;99993.31;;;21.90;70.94
77161;BME280;66135;0.000;0.000;2023-07-31T21:16:15;99988.94;;;21.89;70.89
77161;BME280;66135;0.000;0.000;2023-07-31T21:18:40;99984.31;;;21.90;70.91
77161;BME280;66135;0.000;0.000;2023-07-31T21:21:06;99972.59;;;21.89;70.88
77161;BME280;66135;0.000;0.000;2023-07-31T21:23:31;99975.53;;;21.88;70.83
77161;BME280;66135;0.000;0.000;2023-07-31T21:25:57;99968.16;;;21.88;70.72
77161;BME280;66135;0.000;0.000;2023-07-31T21:28:22;99964.41;;;21.89;70.52
77161;BME280;66135;0.000;0.000;2023-07-31T21:30:47;99960.59;;;21.90;70.41
77161;BME280;66135;0.000;0.000;2023-07-31T21:33:13;99964.41;;;21.89;70.75
77161;BME280;66135;0.000;0.000;2023-07-31T21:35:38;99954.31;;;21.90;70.32